Time;durP1;ratioP1;P1;durP2;ratioP2;P2;SDS_P1;SDS_P2;PMS_P1;PMS_P2;Temp;Humidity;BMP_temperature;BMP_pressure;BME280_temperature;BME280_humidity;BME280_pressure;Samples;Min_cycle;Max_cycle;Signal;HPM_P1;HPM_P2
2023/08/26 00:02:20;;;;;;;3.17;2.63;;;;;;;;;;5034110;28;20054;-83
2023/08/26 00:04:46;;;;;;;4.80;2.95;;;;;;;;;;5036681;28;20028;-83
2023/08/26 00:07:12;;;;;;;5.70;2.72;;;;;;;;;;5036968;28;20542;-82
2023/08/26 00:09:38;;;;;;;4.43;2.40;;;;;;;;;;5037443;28;20017;-83
2023/08/26 00:12:04;;;;;;;5.07;2.88;;;;;;;;;;5036655;28;20037;-83
2023/08/26 00:14:31;;;;;;;4.47;3.00;;;;;;;;;;5036727;28;20033;-82
2023/08/26 00:16:57;;;;;;;4.18;2.88;;;;;;;;;;5018564;28;20120;-83
2023/08/26 00:19:24;;;;;;;5.05;2.60;;;;;;;;;;5036701;28;20025;-83
2023/08/26 00:21:50;;;;;;;3.92;2.25;;;;;;;;;;5018570;28;20021;-83
2023/08/26 00:24:17;;;;;;;6.05;2.70;;;;;;;;;;5036474;28;20518;-83
2023/08/26 00:26:43;;;;;;;3.10;2.22;;;;;;;;;;5035881;28;20532;-83
2023/08/26 00:29:09;;;;;;;3.83;2.63;;;;;;;;;;5036041;28;20029;-83
2023/08/26 00:31:35;;;;;;;3.90;2.00;;;;;;;;;;5035838;28;20036;-83
2023/08/26 00:34:03;;;;;;;2.88;2.10;;;;;;;;;;5018247;28;20025;-82
2023/08/26 00:36:30;;;;;;;2.63;2.17;;;;;;;;;;5018370;28;20033;-82
2023/08/26 00:38:57;;;;;;;3.38;2.53;;;;;;;;;;5036151;28;20018;-82
2023/08/26 00:41:23;;;;;;;5.18;2.60;;;;;;;;;;5018171;28;20030;-82
2023/08/26 00:43:49;;;;;;;4.07;2.30;;;;;;;;;;5035774;28;20494;-82
2023/08/26 00:46:15;;;;;;;4.30;2.55;;;;;;;;;;5018083;28;20022;-83
2023/08/26 00:48:42;;;;;;;2.83;2.53;;;;;;;;;;5037171;28;20021;-83
2023/08/26 00:51:08;;;;;;;4.43;2.20;;;;;;;;;;5018413;28;20128;-83
2023/08/26 00:53:34;;;;;;;2.85;2.08;;;;;;;;;;5018228;28;20416;-83
2023/08/26 00:56:00;;;;;;;3.45;2.10;;;;;;;;;;5017738;28;20053;-82
2023/08/26 00:58:27;;;;;;;3.83;2.40;;;;;;;;;;5017152;28;20400;-82
2023/08/26 01:00:53;;;;;;;5.32;2.28;;;;;;;;;;5013527;28;20052;-82
2023/08/26 01:03:19;;;;;;;3.70;2.67;;;;;;;;;;5013850;28;20026;-82
2023/08/26 01:05:45;;;;;;;4.45;2.40;;;;;;;;;;5014101;28;20075;-82
2023/08/26 01:08:12;;;;;;;2.60;2.40;;;;;;;;;;5013704;28;20121;-82
2023/08/26 01:10:41;;;;;;;4.68;2.50;;;;;;;;;;5013685;28;20619;-82
2023/08/26 01:13:11;;;;;;;5.05;2.42;;;;;;;;;;5012696;28;20034;-82
2023/08/26 01:15:40;;;;;;;3.03;2.45;;;;;;;;;;5013674;28;20029;-82
2023/08/26 01:18:07;;;;;;;3.70;2.00;;;;;;;;;;5013608;28;20030;-82
2023/08/26 01:20:33;;;;;;;3.03;2.30;;;;;;;;;;5013551;28;20555;-82
2023/08/26 01:23:00;;;;;;;5.15;2.60;;;;;;;;;;5013614;28;20026;-82
2023/08/26 01:25:26;;;;;;;4.97;2.42;;;;;;;;;;5013669;28;20542;-82
2023/08/26 01:27:56;;;;;;;3.30;2.50;;;;;;;;;;5013431;28;20026;-82
2023/08/26 01:30:22;;;;;;;3.10;2.30;;;;;;;;;;5013447;28;20116;-82
2023/08/26 01:33:07;;;;;;;3.90;2.60;;;;;;;;;;5014293;28;20451;-82
2023/08/26 01:35:37;;;;;;;4.32;2.45;;;;;;;;;;5013626;28;20030;-82
2023/08/26 01:38:03;;;;;;;5.13;2.47;;;;;;;;;;5013504;28;20021;-82
2023/08/26 01:44:12;;;;;;;5.93;2.88;;;;;;;;;;5014688;28;20083;-82
2023/08/26 01:46:38;;;;;;;4.93;2.65;;;;;;;;;;5013135;28;20037;-82
2023/08/26 01:49:05;;;;;;;5.85;2.70;;;;;;;;;;5013129;28;20358;-82
2023/08/26 01:51:31;;;;;;;4.95;2.70;;;;;;;;;;5012874;28;20061;-82
2023/08/26 01:53:57;;;;;;;2.95;2.58;;;;;;;;;;5013012;28;20397;-82
2023/08/26 01:56:23;;;;;;;2.58;2.38;;;;;;;;;;5014689;28;20026;-82
2023/08/26 01:58:49;;;;;;;2.60;2.40;;;;;;;;;;5014162;28;20030;-82
2023/08/26 02:01:15;;;;;;;5.47;2.80;;;;;;;;;;5021475;28;20111;-82
2023/08/26 02:03:41;;;;;;;4.53;3.03;;;;;;;;;;5016216;28;20025;-82
2023/08/26 02:06:08;;;;;;;4.80;2.88;;;;;;;;;;5033783;28;20104;-82
2023/08/26 02:08:34;;;;;;;3.35;2.55;;;;;;;;;;5034026;28;20056;-82
2023/08/26 02:11:00;;;;;;;6.78;2.80;;;;;;;;;;5033548;28;20018;-82
2023/08/26 02:13:26;;;;;;;3.15;2.85;;;;;;;;;;5016960;28;20589;-82
2023/08/26 02:15:52;;;;;;;4.05;3.20;;;;;;;;;;5034057;28;20017;-82
2023/08/26 02:18:18;;;;;;;4.95;2.78;;;;;;;;;;5033442;28;20473;-82
2023/08/26 02:20:45;;;;;;;3.25;2.78;;;;;;;;;;5043445;28;20025;-82
2023/08/26 02:23:20;;;;;;;4.55;2.88;;;;;;;;;;5027136;28;20465;-82
2023/08/26 02:25:46;;;;;;;4.60;2.78;;;;;;;;;;5045571;28;20488;-82
2023/08/26 02:28:12;;;;;;;5.07;2.80;;;;;;;;;;5028229;28;20659;-82
2023/08/26 02:30:38;;;;;;;5.15;2.90;;;;;;;;;;5047575;28;20097;-82
2023/08/26 02:33:06;;;;;;;3.72;3.42;;;;;;;;;;5047487;28;20030;-81
2023/08/26 02:35:33;;;;;;;6.07;3.25;;;;;;;;;;5026258;28;20497;-81
2023/08/26 02:37:59;;;;;;;3.40;3.08;;;;;;;;;;5015879;28;20120;-81
2023/08/26 02:40:25;;;;;;;4.40;3.35;;;;;;;;;;5033469;28;20084;-81
2023/08/26 02:42:51;;;;;;;4.82;3.30;;;;;;;;;;5015911;28;20095;-81
2023/08/26 02:45:17;;;;;;;7.38;3.80;;;;;;;;;;5033500;28;20045;-81
2023/08/26 02:47:43;;;;;;;4.38;3.63;;;;;;;;;;5033423;28;20104;-81
2023/08/26 02:50:09;;;;;;;4.53;3.50;;;;;;;;;;5015686;28;20021;-82
2023/08/26 02:52:35;;;;;;;5.18;3.40;;;;;;;;;;5015572;28;20519;-82
2023/08/26 02:55:01;;;;;;;5.70;3.30;;;;;;;;;;5015858;28;20491;-82
2023/08/26 02:57:27;;;;;;;5.72;4.00;;;;;;;;;;5015542;28;20025;-81
2023/08/26 02:59:53;;;;;;;4.03;3.58;;;;;;;;;;5015598;28;20025;-82
2023/08/26 03:02:24;;;;;;;7.45;4.20;;;;;;;;;;5015278;28;20068;-82
2023/08/26 03:04:50;;;;;;;6.47;4.05;;;;;;;;;;5015729;28;20111;-82
2023/08/26 03:10:44;;;;;;;5.80;3.83;;;;;;;;;;5033608;28;20071;-81
2023/08/26 03:13:10;;;;;;;5.53;3.72;;;;;;;;;;5015437;28;20068;-81
2023/08/26 03:15:36;;;;;;;6.70;4.28;;;;;;;;;;5015447;28;20034;-81
2023/08/26 03:18:03;;;;;;;5.38;4.13;;;;;;;;;;5015390;28;20362;-81
2023/08/26 03:20:29;;;;;;;6.25;4.05;;;;;;;;;;5015378;28;20029;-82
2023/08/26 03:22:56;;;;;;;5.55;3.55;;;;;;;;;;5015290;28;20029;-81
2023/08/26 03:25:22;;;;;;;5.00;3.80;;;;;;;;;;5016062;28;20084;-82
2023/08/26 03:27:48;;;;;;;5.00;4.20;;;;;;;;;;5015912;28;20124;-82
2023/08/26 03:30:14;;;;;;;4.15;3.75;;;;;;;;;;5015423;28;20049;-81
2023/08/26 03:32:46;;;;;;;6.80;3.95;;;;;;;;;;5015145;28;20087;-81
2023/08/26 03:35:12;;;;;;;4.90;3.42;;;;;;;;;;5016109;28;20033;-81
2023/08/26 03:37:38;;;;;;;4.93;3.60;;;;;;;;;;5018782;28;20025;-81
2023/08/26 03:40:08;;;;;;;4.22;3.53;;;;;;;;;;5018851;28;20400;-81
2023/08/26 03:42:34;;;;;;;3.47;3.17;;;;;;;;;;5018718;28;20049;-81
2023/08/26 03:45:00;;;;;;;6.05;4.15;;;;;;;;;;5018665;28;20064;-81
2023/08/26 03:47:26;;;;;;;4.88;4.00;;;;;;;;;;5018632;28;20495;-81
2023/08/26 03:49:52;;;;;;;4.65;3.45;;;;;;;;;;5018915;28;20021;-81
2023/08/26 03:52:18;;;;;;;5.32;3.83;;;;;;;;;;5018505;28;20043;-82
2023/08/26 03:54:44;;;;;;;4.93;4.07;;;;;;;;;;5018559;28;20385;-81
2023/08/26 04:00:20;;;;;;;5.35;3.90;;;;;;;;;;5036435;28;20028;-81
2023/08/26 04:02:46;;;;;;;5.72;4.00;;;;;;;;;;5014773;28;20452;-81
2023/08/26 04:05:13;;;;;;;6.13;3.92;;;;;;;;;;5015139;28;20470;-81
2023/08/26 04:07:39;;;;;;;5.28;4.43;;;;;;;;;;5014982;28;20038;-81
2023/08/26 04:10:06;;;;;;;6.97;4.35;;;;;;;;;;5015027;28;20080;-81
2023/08/26 04:12:32;;;;;;;5.63;4.40;;;;;;;;;;5014995;28;20392;-81
2023/08/26 04:14:58;;;;;;;5.70;3.88;;;;;;;;;;5015170;28;20469;-81
2023/08/26 04:17:24;;;;;;;6.22;4.28;;;;;;;;;;5016273;28;20030;-81
2023/08/26 04:19:50;;;;;;;5.10;4.40;;;;;;;;;;5016210;28;20022;-81
2023/08/26 04:22:16;;;;;;;7.15;4.70;;;;;;;;;;5016555;28;20030;-81
2023/08/26 04:24:42;;;;;;;7.60;4.80;;;;;;;;;;5016276;28;20025;-81
2023/08/26 04:27:08;;;;;;;5.28;4.47;;;;;;;;;;5016111;28;20030;-81
2023/08/26 04:29:34;;;;;;;7.28;3.97;;;;;;;;;;5016206;28;20111;-81
2023/08/26 04:32:00;;;;;;;6.00;3.92;;;;;;;;;;5015980;28;20073;-81
2023/08/26 04:34:26;;;;;;;7.13;3.88;;;;;;;;;;5015900;28;20061;-81
2023/08/26 04:36:52;;;;;;;5.65;4.28;;;;;;;;;;5016001;28;20033;-81
2023/08/26 04:39:22;;;;;;;4.45;3.83;;;;;;;;;;5016046;28;20040;-81
2023/08/26 04:42:00;;;;;;;5.47;4.63;;;;;;;;;;5016334;28;20423;-81
2023/08/26 04:44:26;;;;;;;6.95;3.85;;;;;;;;;;5016717;28;20488;-81
2023/08/26 04:46:55;;;;;;;7.47;4.72;;;;;;;;;;5014576;28;20084;-81
2023/08/26 04:49:21;;;;;;;7.68;4.40;;;;;;;;;;5016907;28;20025;-81
2023/08/26 04:51:54;;;;;;;5.82;4.30;;;;;;;;;;5016831;28;20065;-81
2023/08/26 04:54:21;;;;;;;10.20;4.90;;;;;;;;;;5014260;28;20477;-81
2023/08/26 04:56:47;;;;;;;6.90;4.75;;;;;;;;;;5019251;28;20381;-81
2023/08/26 04:59:13;;;;;;;9.68;5.05;;;;;;;;;;5016751;28;20030;-81
2023/08/26 05:01:39;;;;;;;6.28;5.03;;;;;;;;;;5013990;28;20057;-81
2023/08/26 05:04:05;;;;;;;6.82;4.85;;;;;;;;;;5015969;28;20407;-81
2023/08/26 05:06:31;;;;;;;7.55;5.07;;;;;;;;;;5015601;28;20457;-81
2023/08/26 05:08:57;;;;;;;6.25;5.65;;;;;;;;;;5014377;28;20058;-81
2023/08/26 05:11:23;;;;;;;7.28;5.47;;;;;;;;;;5014406;28;20035;-81
2023/08/26 05:13:49;;;;;;;6.25;5.03;;;;;;;;;;5016921;28;20105;-81
2023/08/26 05:16:15;;;;;;;9.07;5.97;;;;;;;;;;5014087;28;20038;-81
2023/08/26 05:18:41;;;;;;;8.35;5.70;;;;;;;;;;5014130;28;20029;-81
2023/08/26 05:21:07;;;;;;;8.68;6.38;;;;;;;;;;5013875;28;20117;-81
2023/08/26 05:23:34;;;;;;;8.80;6.35;;;;;;;;;;5017571;28;20030;-81
2023/08/26 05:26:00;;;;;;;8.75;5.95;;;;;;;;;;5016499;28;20030;-81
2023/08/26 05:28:26;;;;;;;7.97;5.55;;;;;;;;;;5013764;28;20022;-81
2023/08/26 05:30:52;;;;;;;7.03;6.07;;;;;;;;;;5016508;28;20465;-81
2023/08/26 05:33:18;;;;;;;6.40;5.68;;;;;;;;;;5014515;28;20045;-81
2023/08/26 05:35:44;;;;;;;8.25;6.47;;;;;;;;;;5016048;28;20539;-81
2023/08/26 05:38:09;;;;;;;9.55;6.47;;;;;;;;;;5014927;28;20026;-81
2023/08/26 05:40:36;;;;;;;8.82;6.75;;;;;;;;;;5015790;28;20035;-81
2023/08/26 05:43:01;;;;;;;9.63;6.15;;;;;;;;;;5014403;28;20080;-81
2023/08/26 05:45:28;;;;;;;14.82;7.50;;;;;;;;;;5014091;28;20443;-81
2023/08/26 05:47:54;;;;;;;9.73;6.43;;;;;;;;;;5014065;28;20033;-81
2023/08/26 05:50:20;;;;;;;7.47;6.15;;;;;;;;;;5013800;28;20036;-81
2023/08/26 05:52:46;;;;;;;11.52;6.32;;;;;;;;;;5014683;28;20132;-81
2023/08/26 05:55:12;;;;;;;10.23;6.47;;;;;;;;;;5017640;28;20385;-81
2023/08/26 05:57:38;;;;;;;10.32;6.53;;;;;;;;;;5013312;28;20489;-81
2023/08/26 06:00:06;;;;;;;10.20;6.32;;;;;;;;;;5013475;28;20030;-81
2023/08/26 06:02:32;;;;;;;8.38;6.20;;;;;;;;;;5013663;28;20056;-81
2023/08/26 06:04:59;;;;;;;8.60;6.13;;;;;;;;;;5013610;28;20034;-81
2023/08/26 06:07:35;;;;;;;9.63;6.38;;;;;;;;;;5013600;28;20434;-81
2023/08/26 06:10:13;;;;;;;10.40;7.53;;;;;;;;;;5013939;28;20431;-81
2023/08/26 06:12:39;;;;;;;8.63;6.15;;;;;;;;;;5015108;28;20034;-81
2023/08/26 06:15:05;;;;;;;10.20;6.57;;;;;;;;;;5013890;28;20626;-81
2023/08/26 06:17:32;;;;;;;9.80;6.43;;;;;;;;;;5015352;28;20030;-81
2023/08/26 06:19:58;;;;;;;10.70;6.95;;;;;;;;;;5018727;28;20072;-81
2023/08/26 06:22:24;;;;;;;9.15;6.72;;;;;;;;;;5013782;28;20030;-81
2023/08/26 06:24:50;;;;;;;11.32;7.25;;;;;;;;;;5013516;28;20030;-81
2023/08/26 06:27:16;;;;;;;9.77;6.68;;;;;;;;;;5013641;28;20053;-81
2023/08/26 06:29:51;;;;;;;9.13;6.47;;;;;;;;;;5013396;28;20029;-81
2023/08/26 06:32:17;;;;;;;9.77;6.40;;;;;;;;;;5013223;28;20038;-81
2023/08/26 06:34:45;;;;;;;6.82;6.07;;;;;;;;;;5014507;28;20025;-81
2023/08/26 06:37:11;;;;;;;8.23;6.05;;;;;;;;;;5013903;28;20041;-81
2023/08/26 06:39:37;;;;;;;9.00;6.97;;;;;;;;;;5015345;28;20040;-81
2023/08/26 06:42:03;;;;;;;7.75;5.60;;;;;;;;;;5014650;28;20029;-81
2023/08/26 06:44:29;;;;;;;6.68;5.97;;;;;;;;;;5013537;28;20030;-81
2023/08/26 06:46:55;;;;;;;8.50;5.85;;;;;;;;;;5013239;28;20116;-81
2023/08/26 06:49:21;;;;;;;8.77;5.82;;;;;;;;;;5013348;28;20067;-81
2023/08/26 06:51:47;;;;;;;5.20;4.70;;;;;;;;;;5013133;28;20496;-81
2023/08/26 06:54:13;;;;;;;7.75;5.32;;;;;;;;;;5016003;28;20026;-82
2023/08/26 06:56:39;;;;;;;7.47;5.57;;;;;;;;;;5014110;28;20108;-82
2023/08/26 07:02:09;;;;;;;8.30;6.60;;;;;;;;;;5030186;28;20065;-82
2023/08/26 07:04:35;;;;;;;9.27;7.68;;;;;;;;;;5018548;28;20036;-82
2023/08/26 07:07:01;;;;;;;8.07;6.93;;;;;;;;;;5015877;28;20021;-82
2023/08/26 07:09:27;;;;;;;6.80;5.70;;;;;;;;;;5019138;28;20032;-82
2023/08/26 07:11:53;;;;;;;5.65;5.05;;;;;;;;;;5024812;28;20033;-82
2023/08/26 07:14:19;;;;;;;5.60;4.50;;;;;;;;;;5024239;28;20495;-82
2023/08/26 07:16:45;;;;;;;7.45;4.47;;;;;;;;;;5020052;28;20018;-82
2023/08/26 07:19:11;;;;;;;6.93;4.97;;;;;;;;;;5019602;28;20108;-82
2023/08/26 07:21:37;;;;;;;4.85;4.30;;;;;;;;;;5043338;28;20045;-82
2023/08/26 07:24:03;;;;;;;6.25;4.18;;;;;;;;;;5038973;28;20045;-82
2023/08/26 07:26:29;;;;;;;7.78;4.15;;;;;;;;;;5019385;28;20054;-82
2023/08/26 07:28:55;;;;;;;6.13;4.30;;;;;;;;;;5037363;28;20068;-82
2023/08/26 07:31:21;;;;;;;6.35;4.32;;;;;;;;;;5023308;28;20120;-82
2023/08/26 07:33:47;;;;;;;5.03;4.28;;;;;;;;;;5028375;28;20032;-82
2023/08/26 07:36:13;;;;;;;6.50;4.18;;;;;;;;;;5028015;28;20026;-82
2023/08/26 07:38:41;;;;;;;4.80;4.30;;;;;;;;;;5044291;28;20083;-82
2023/08/26 07:41:07;;;;;;;4.30;3.83;;;;;;;;;;5044120;28;20025;-82
2023/08/26 07:43:37;;;;;;;4.10;3.70;;;;;;;;;;5043973;28;20057;-82
2023/08/26 07:46:03;;;;;;;3.00;2.70;;;;;;;;;;5042142;28;20089;-82
2023/08/26 07:48:29;;;;;;;2.83;1.92;;;;;;;;;;5022360;28;20052;-82
2023/08/26 07:50:55;;;;;;;1.75;1.25;;;;;;;;;;5041104;28;20036;-82
2023/08/26 07:53:21;;;;;;;2.08;1.50;;;;;;;;;;5042685;28;20085;-81
2023/08/26 07:55:47;;;;;;;1.08;0.90;;;;;;;;;;5042629;28;20026;-82
2023/08/26 07:58:13;;;;;;;1.50;1.08;;;;;;;;;;5042868;28;20488;-82
2023/08/26 08:00:39;;;;;;;1.02;0.90;;;;;;;;;;5040841;28;20079;-82
2023/08/26 08:03:05;;;;;;;2.47;1.20;;;;;;;;;;5040567;28;20052;-82
2023/08/26 08:05:31;;;;;;;4.25;1.42;;;;;;;;;;5042056;28;20031;-81
2023/08/26 08:07:57;;;;;;;2.58;1.30;;;;;;;;;;5047176;28;20025;-82
2023/08/26 08:10:23;;;;;;;2.25;1.20;;;;;;;;;;5039178;28;20026;-82
2023/08/26 08:12:49;;;;;;;2.75;1.30;;;;;;;;;;5039880;28;20040;-82
2023/08/26 08:15:15;;;;;;;3.08;1.20;;;;;;;;;;5044071;28;20108;-82
2023/08/26 08:17:41;;;;;;;1.83;1.00;;;;;;;;;;5046507;28;20030;-82
2023/08/26 08:20:08;;;;;;;1.92;1.25;;;;;;;;;;5039444;28;20025;-82
2023/08/26 08:22:39;;;;;;;3.97;1.45;;;;;;;;;;5039102;28;20025;-82
2023/08/26 08:25:08;;;;;;;2.70;1.20;;;;;;;;;;5021555;28;20438;-82
2023/08/26 08:27:36;;;;;;;2.25;1.13;;;;;;;;;;5042309;28;20488;-82
2023/08/26 08:30:03;;;;;;;2.40;1.15;;;;;;;;;;5044126;28;20119;-81
2023/08/26 08:32:29;;;;;;;1.58;1.00;;;;;;;;;;5042494;28;20400;-81
2023/08/26 08:34:55;;;;;;;1.67;0.88;;;;;;;;;;5041120;28;20088;-81
2023/08/26 08:37:21;;;;;;;2.17;1.00;;;;;;;;;;5042207;28;20032;-82
2023/08/26 08:39:47;;;;;;;1.17;0.88;;;;;;;;;;5042677;28;20031;-81
2023/08/26 08:42:15;;;;;;;1.83;0.98;;;;;;;;;;5042184;28;20060;-82
2023/08/26 08:44:42;;;;;;;1.98;0.70;;;;;;;;;;5042482;28;20029;-82
2023/08/26 08:47:08;;;;;;;1.10;0.80;;;;;;;;;;5042244;28;20076;-81
2023/08/26 08:49:35;;;;;;;1.83;0.90;;;;;;;;;;5043418;28;20029;-82
2023/08/26 08:52:04;;;;;;;2.72;0.90;;;;;;;;;;5043159;28;20026;-82
2023/08/26 08:54:30;;;;;;;2.15;1.02;;;;;;;;;;5043102;28;20053;-82
2023/08/26 08:56:56;;;;;;;1.20;1.08;;;;;;;;;;5041864;28;20388;-82
2023/08/26 08:59:23;;;;;;;2.40;1.35;;;;;;;;;;5042056;28;20108;-82
2023/08/26 09:01:49;;;;;;;4.60;1.60;;;;;;;;;;5042978;28;20057;-82
2023/08/26 09:04:15;;;;;;;2.83;1.73;;;;;;;;;;5047591;28;20001;-82
2023/08/26 09:06:41;;;;;;;3.47;1.90;;;;;;;;;;5044708;28;20449;-82
2023/08/26 09:09:26;;;;;;;8.02;2.28;;;;;;;;;;5024241;28;20021;-82
2023/08/26 09:11:52;;;;;;;5.68;2.67;;;;;;;;;;5046629;28;20034;-81
2023/08/26 09:14:18;;;;;;;5.70;2.80;;;;;;;;;;5041970;28;20025;-80
2023/08/26 09:16:44;;;;;;;5.35;3.08;;;;;;;;;;5021810;28;20089;-79
2023/08/26 09:19:11;;;;;;;6.47;3.03;;;;;;;;;;5039995;28;20021;-80
2023/08/26 09:21:47;;;;;;;6.72;3.40;;;;;;;;;;5044515;28;20641;-79
2023/08/26 09:24:17;;;;;;;5.55;3.20;;;;;;;;;;5040156;28;20097;-79
2023/08/26 09:26:45;;;;;;;5.40;3.58;;;;;;;;;;5039857;28;20029;-80
2023/08/26 09:29:12;;;;;;;6.72;4.47;;;;;;;;;;5041115;28;20030;-80
2023/08/26 09:31:52;;;;;;;5.95;4.60;;;;;;;;;;5041950;28;20036;-80
2023/08/26 09:34:29;;;;;;;6.25;4.90;;;;;;;;;;5041371;28;20514;-80
2023/08/26 09:36:56;;;;;;;6.25;5.13;;;;;;;;;;5040804;28;20036;-80
2023/08/26 09:39:22;;;;;;;5.55;4.97;;;;;;;;;;5040485;28;20028;-81
2023/08/26 09:41:49;;;;;;;6.28;4.80;;;;;;;;;;5040726;28;20079;-80
2023/08/26 09:44:18;;;;;;;4.75;3.58;;;;;;;;;;5040623;28;20438;-80
2023/08/26 09:46:44;;;;;;;5.68;2.60;;;;;;;;;;5041488;28;20028;-80
2023/08/26 09:49:18;;;;;;;3.28;1.80;;;;;;;;;;5042155;28;20057;-81
2023/08/26 09:51:50;;;;;;;3.30;1.70;;;;;;;;;;5041482;28;20397;-81
2023/08/26 09:54:17;;;;;;;2.35;1.80;;;;;;;;;;5022102;28;20025;-80
2023/08/26 09:56:45;;;;;;;4.80;1.60;;;;;;;;;;5022281;28;20052;-81
2023/08/26 09:59:10;;;;;;;2.42;1.60;;;;;;;;;;5021764;28;20029;-80
2023/08/26 10:01:38;;;;;;;3.95;1.73;;;;;;;;;;5042104;28;20057;-81
2023/08/26 10:04:08;;;;;;;2.85;1.83;;;;;;;;;;5043793;28;20082;-80
2023/08/26 10:06:37;;;;;;;3.10;1.90;;;;;;;;;;5043371;28;20021;-80
2023/08/26 10:09:07;;;;;;;4.97;2.33;;;;;;;;;;5025928;28;20053;-81
2023/08/26 10:11:37;;;;;;;4.05;1.98;;;;;;;;;;5045255;28;20641;-80
2023/08/26 10:14:05;;;;;;;2.30;2.00;;;;;;;;;;5045487;28;20022;-80
2023/08/26 10:16:31;;;;;;;2.05;1.80;;;;;;;;;;5045400;28;20021;-80
2023/08/26 10:18:59;;;;;;;3.38;2.00;;;;;;;;;;5044074;28;20100;-81
2023/08/26 10:21:26;;;;;;;3.92;2.10;;;;;;;;;;5044201;28;20022;-81
2023/08/26 10:23:52;;;;;;;2.70;1.88;;;;;;;;;;5025734;28;20021;-81
2023/08/26 10:26:19;;;;;;;2.70;2.00;;;;;;;;;;5046383;28;20494;-81
2023/08/26 10:28:46;;;;;;;1.65;1.50;;;;;;;;;;5044118;28;20017;-81
2023/08/26 10:31:13;;;;;;;2.45;1.45;;;;;;;;;;5044252;28;20487;-81
2023/08/26 10:33:59;;;;;;;1.77;1.35;;;;;;;;;;5045292;28;20369;-81
2023/08/26 10:36:25;;;;;;;2.35;1.60;;;;;;;;;;5045729;28;20095;-81
2023/08/26 10:38:55;;;;;;;2.05;1.50;;;;;;;;;;5044483;28;20053;-81
2023/08/26 10:41:21;;;;;;;2.70;1.35;;;;;;;;;;5044848;28;20021;-81
2023/08/26 10:43:52;;;;;;;2.92;1.40;;;;;;;;;;5043906;28;20117;-81
2023/08/26 10:46:18;;;;;;;1.85;1.27;;;;;;;;;;5048409;28;20044;-82
2023/08/26 10:48:56;;;;;;;1.92;1.50;;;;;;;;;;5049174;28;20096;-81
2023/08/26 10:51:22;;;;;;;2.15;1.33;;;;;;;;;;5048258;28;20018;-82
2023/08/26 10:53:51;;;;;;;2.20;1.30;;;;;;;;;;5049187;28;20029;-82
2023/08/26 10:56:21;;;;;;;3.72;1.77;;;;;;;;;;5047219;28;20033;-82
2023/08/26 10:58:48;;;;;;;2.33;1.20;;;;;;;;;;5046722;28;20018;-82
2023/08/26 11:01:18;;;;;;;1.88;1.35;;;;;;;;;;5049095;28;20039;-82
2023/08/26 11:03:47;;;;;;;2.60;1.38;;;;;;;;;;5049422;28;20033;-82
2023/08/26 11:06:19;;;;;;;5.20;1.10;;;;;;;;;;5049018;28;20508;-82
2023/08/26 11:08:52;;;;;;;3.20;1.25;;;;;;;;;;5049457;28;20025;-82
2023/08/26 11:11:18;;;;;;;3.83;1.17;;;;;;;;;;5049020;28;20091;-82
2023/08/26 11:13:45;;;;;;;4.13;1.10;;;;;;;;;;5049229;28;20073;-82
2023/08/26 11:16:13;;;;;;;2.53;1.30;;;;;;;;;;5049903;28;20045;-81
2023/08/26 11:18:39;;;;;;;3.85;1.38;;;;;;;;;;5050480;28;20029;-81
2023/08/26 11:21:05;;;;;;;3.65;1.40;;;;;;;;;;5050651;28;20033;-81
2023/08/26 11:23:35;;;;;;;3.00;1.20;;;;;;;;;;5050535;28;20048;-81
2023/08/26 11:26:01;;;;;;;3.80;1.00;;;;;;;;;;5049881;28;20080;-82
2023/08/26 11:28:28;;;;;;;2.05;1.17;;;;;;;;;;5030290;28;20033;-82
2023/08/26 11:30:54;;;;;;;2.90;0.95;;;;;;;;;;5049672;28;20124;-82
2023/08/26 11:33:21;;;;;;;1.33;0.93;;;;;;;;;;5048264;28;20030;-82
2023/08/26 11:35:48;;;;;;;2.80;1.00;;;;;;;;;;5048899;28;20392;-82
2023/08/26 11:38:15;;;;;;;0.80;0.80;;;;;;;;;;5050228;28;20044;-82
2023/08/26 11:40:41;;;;;;;1.98;0.90;;;;;;;;;;5049850;28;20031;-82
2023/08/26 11:43:13;;;;;;;2.63;0.80;;;;;;;;;;5050546;28;20104;-82
2023/08/26 11:45:50;;;;;;;2.60;0.95;;;;;;;;;;5050391;28;20029;-83
2023/08/26 11:48:16;;;;;;;3.72;1.17;;;;;;;;;;5031969;28;20113;-82
2023/08/26 11:50:42;;;;;;;3.20;1.30;;;;;;;;;;5050142;28;20018;-82
2023/08/26 11:53:08;;;;;;;4.30;1.50;;;;;;;;;;5050539;28;20056;-82
2023/08/26 11:55:35;;;;;;;2.60;1.73;;;;;;;;;;5049151;28;20593;-82
2023/08/26 11:58:02;;;;;;;3.15;1.60;;;;;;;;;;5049240;28;20028;-83
2023/08/26 12:00:29;;;;;;;2.15;1.65;;;;;;;;;;5049612;28;20104;-82
2023/08/26 12:03:02;;;;;;;3.00;1.70;;;;;;;;;;5048986;28;20081;-83
2023/08/26 12:05:29;;;;;;;2.88;1.48;;;;;;;;;;5048612;28;20028;-83
2023/08/26 12:07:56;;;;;;;3.38;1.20;;;;;;;;;;5050124;28;20029;-83
2023/08/26 12:10:23;;;;;;;2.67;1.20;;;;;;;;;;5050158;28;20029;-83
2023/08/26 12:12:49;;;;;;;2.42;0.90;;;;;;;;;;5049538;28;20435;-83
2023/08/26 12:15:16;;;;;;;0.85;0.82;;;;;;;;;;5051173;28;20048;-82
2023/08/26 12:17:46;;;;;;;1.85;0.80;;;;;;;;;;5050588;28;20025;-82
2023/08/26 12:20:19;;;;;;;1.08;0.70;;;;;;;;;;5047878;28;20468;-82
2023/08/26 12:22:52;;;;;;;2.45;1.05;;;;;;;;;;5051074;28;20088;-83
2023/08/26 12:25:18;;;;;;;2.15;0.90;;;;;;;;;;5033495;28;20033;-83
2023/08/26 12:27:46;;;;;;;1.80;0.65;;;;;;;;;;5049970;28;20483;-83
2023/08/26 12:30:12;;;;;;;1.00;0.65;;;;;;;;;;5050577;28;20049;-83
2023/08/26 12:32:38;;;;;;;1.38;0.70;;;;;;;;;;5049537;28;20032;-82
2023/08/26 12:35:04;;;;;;;1.00;0.63;;;;;;;;;;5051764;28;20017;-82
2023/08/26 12:37:30;;;;;;;4.45;0.90;;;;;;;;;;5051583;28;20021;-82
2023/08/26 12:39:57;;;;;;;1.45;0.73;;;;;;;;;;5048986;28;20239;-82
2023/08/26 12:42:23;;;;;;;2.38;0.52;;;;;;;;;;5046917;28;20044;-82
2023/08/26 12:44:49;;;;;;;1.30;0.50;;;;;;;;;;5037411;28;20203;-82
2023/08/26 12:47:15;;;;;;;3.05;0.98;;;;;;;;;;5038733;28;20404;-82
2023/08/26 12:49:41;;;;;;;1.08;0.70;;;;;;;;;;5042592;28;20025;-82
2023/08/26 12:52:13;;;;;;;1.85;0.60;;;;;;;;;;5036725;28;20038;-83
2023/08/26 12:54:39;;;;;;;1.45;0.60;;;;;;;;;;5036965;28;20529;-83
2023/08/26 12:57:05;;;;;;;1.45;0.70;;;;;;;;;;5039004;28;20021;-82
2023/08/26 12:59:31;;;;;;;2.35;0.90;;;;;;;;;;5038853;28;20030;-83
2023/08/26 13:01:57;;;;;;;3.60;0.60;;;;;;;;;;5037914;28;20057;-83
2023/08/26 13:04:23;;;;;;;1.42;0.73;;;;;;;;;;5038498;28;20503;-83
2023/08/26 13:06:49;;;;;;;2.13;0.50;;;;;;;;;;5040131;28;20136;-80
2023/08/26 13:09:15;;;;;;;1.88;0.50;;;;;;;;;;5040062;28;20370;-84
2023/08/26 13:11:41;;;;;;;0.60;0.40;;;;;;;;;;5035233;28;20507;-84
2023/08/26 13:14:07;;;;;;;1.23;0.30;;;;;;;;;;5017576;28;20029;-84
2023/08/26 13:16:33;;;;;;;1.08;0.38;;;;;;;;;;5017405;28;20431;-84
2023/08/26 13:18:59;;;;;;;0.50;0.40;;;;;;;;;;5034934;28;20021;-84
2023/08/26 13:21:26;;;;;;;1.60;0.40;;;;;;;;;;5017156;28;20056;-84
2023/08/26 13:23:59;;;;;;;0.47;0.30;;;;;;;;;;5017145;28;20029;-84
2023/08/26 13:26:25;;;;;;;1.30;0.50;;;;;;;;;;5035016;28;20050;-84
2023/08/26 13:28:51;;;;;;;1.15;0.50;;;;;;;;;;5034783;28;20026;-84
2023/08/26 13:31:17;;;;;;;0.60;0.50;;;;;;;;;;5017438;28;20112;-84
2023/08/26 13:33:43;;;;;;;1.60;0.70;;;;;;;;;;5036424;28;20111;-82
2023/08/26 13:36:09;;;;;;;1.23;0.68;;;;;;;;;;5035415;28;20504;-82
2023/08/26 13:38:35;;;;;;;1.58;0.60;;;;;;;;;;5017007;28;20021;-82
2023/08/26 13:41:01;;;;;;;1.58;0.63;;;;;;;;;;5034906;28;20025;-83
2023/08/26 13:43:27;;;;;;;1.42;0.45;;;;;;;;;;5034928;28;20030;-83
2023/08/26 13:45:53;;;;;;;1.83;0.70;;;;;;;;;;5034759;28;20033;-83
2023/08/26 13:48:19;;;;;;;2.42;0.77;;;;;;;;;;5034826;28;20021;-83
2023/08/26 13:50:45;;;;;;;2.13;0.80;;;;;;;;;;5034476;28;20083;-83
2023/08/26 13:53:11;;;;;;;2.00;0.80;;;;;;;;;;5034261;28;20075;-83
2023/08/26 13:55:38;;;;;;;2.92;0.60;;;;;;;;;;5034134;28;20640;-83
2023/08/26 13:58:04;;;;;;;5.18;0.85;;;;;;;;;;5035006;28;20025;-83
2023/08/26 14:00:30;;;;;;;4.03;0.80;;;;;;;;;;5034323;28;20035;-83
2023/08/26 14:02:56;;;;;;;6.20;1.40;;;;;;;;;;5033729;28;20073;-83
2023/08/26 14:05:24;;;;;;;3.42;0.90;;;;;;;;;;5034297;28;20026;-83
2023/08/26 14:10:59;;;;;;;2.70;1.33;;;;;;;;;;5034766;28;20020;-83
2023/08/26 14:13:25;;;;;;;1.35;0.90;;;;;;;;;;5034765;28;20030;-83
2023/08/26 14:15:52;;;;;;;1.95;1.25;;;;;;;;;;5034503;28;20037;-83
2023/08/26 14:18:18;;;;;;;2.40;0.80;;;;;;;;;;5034069;28;20021;-83
2023/08/26 14:20:44;;;;;;;1.17;0.70;;;;;;;;;;5016259;28;20026;-83
2023/08/26 14:23:10;;;;;;;1.40;0.80;;;;;;;;;;5034201;28;20044;-83
2023/08/26 14:25:40;;;;;;;2.17;1.25;;;;;;;;;;5033989;28;20026;-83
2023/08/26 14:28:06;;;;;;;;;;;;;;;;;;5016554;28;20030;-83
2023/08/26 14:30:32;;;;;;;1.23;0.82;;;;;;;;;;5033894;28;19905;-83
2023/08/26 14:32:58;;;;;;;3.03;1.10;;;;;;;;;;5033720;28;20033;-83
2023/08/26 14:35:24;;;;;;;1.95;0.75;;;;;;;;;;5015977;28;20025;-83
2023/08/26 14:37:50;;;;;;;0.77;0.63;;;;;;;;;;5034198;28;20461;-83
2023/08/26 14:40:16;;;;;;;2.20;0.70;;;;;;;;;;5033747;28;20022;-83
2023/08/26 14:42:42;;;;;;;0.85;0.60;;;;;;;;;;5033912;28;20032;-83
2023/08/26 14:45:09;;;;;;;1.42;0.63;;;;;;;;;;5016070;28;20025;-83
2023/08/26 14:47:35;;;;;;;1.10;0.50;;;;;;;;;;5033890;28;20045;-83
2023/08/26 14:50:34;;;;;;;1.65;0.60;;;;;;;;;;5033722;28;20025;-83
2023/08/26 14:53:00;;;;;;;2.23;0.70;;;;;;;;;;5033700;28;20095;-83
2023/08/26 14:55:27;;;;;;;2.58;0.60;;;;;;;;;;5016611;28;20045;-83
2023/08/26 14:57:53;;;;;;;1.65;0.60;;;;;;;;;;5034782;28;20164;-83
2023/08/26 15:00:19;;;;;;;1.52;0.68;;;;;;;;;;5016588;28;20094;-83